createdAt,value
2023-10-17T00:01:52.286Z,99.90
2023-10-17T00:04:30.941Z,99.90
2023-10-17T00:07:03.843Z,99.90
2023-10-17T00:09:37.680Z,99.90
2023-10-17T00:12:16.302Z,99.90
2023-10-17T00:14:47.547Z,99.90
2023-10-17T00:17:16.998Z,99.90
2023-10-17T00:19:46.226Z,99.90
2023-10-17T00:22:19.058Z,99.90
2023-10-17T00:24:48.858Z,99.90
2023-10-17T00:27:17.647Z,99.90
2023-10-17T00:29:46.662Z,99.90
2023-10-17T00:32:15.790Z,99.90
2023-10-17T00:34:44.874Z,99.90
2023-10-17T00:37:13.088Z,99.90
2023-10-17T00:39:41.421Z,99.90
2023-10-17T00:42:27.883Z,99.90
2023-10-17T00:44:56.686Z,99.90
2023-10-17T00:47:27.185Z,99.90
2023-10-17T00:49:56.089Z,99.90
2023-10-17T00:52:30.166Z,99.90
2023-10-17T00:55:00.364Z,99.90
2023-10-17T00:57:30.025Z,99.90
2023-10-17T01:00:24.855Z,99.90
2023-10-17T01:02:59.267Z,99.90
2023-10-17T01:05:27.641Z,99.90
2023-10-17T01:07:58.873Z,99.90
2023-10-17T01:10:29.813Z,99.90
2023-10-17T01:13:03.923Z,99.90
2023-10-17T01:15:34.743Z,99.90
2023-10-17T01:18:06.366Z,99.90
2023-10-17T01:20:34.038Z,99.90
2023-10-17T01:23:02.819Z,99.90
2023-10-17T01:25:36.756Z,99.90
2023-10-17T01:28:07.747Z,99.90
2023-10-17T01:30:35.943Z,99.90
2023-10-17T01:33:04.933Z,99.90
2023-10-17T01:35:34.655Z,99.90
2023-10-17T01:38:03.087Z,99.90
2023-10-17T01:40:32.548Z,99.90
2023-10-17T01:43:01.116Z,99.90
2023-10-17T01:45:31.350Z,99.90
2023-10-17T01:48:02.206Z,99.90
2023-10-17T01:50:30.608Z,99.90
2023-10-17T01:53:01.313Z,99.90
2023-10-17T01:55:30.564Z,99.90
2023-10-17T01:58:02.375Z,99.90
2023-10-17T02:00:39.385Z,99.90
2023-10-17T02:03:09.230Z,99.90
2023-10-17T02:05:37.653Z,99.90
2023-10-17T02:08:07.811Z,99.90
2023-10-17T02:10:37.990Z,99.90
2023-10-17T02:13:08.493Z,99.90
2023-10-17T02:15:39.290Z,99.90
2023-10-17T02:18:14.576Z,99.90
2023-10-17T02:20:49.183Z,99.90
2023-10-17T02:23:21.155Z,99.90
2023-10-17T02:25:50.912Z,99.90
2023-10-17T02:28:21.312Z,99.90
2023-10-17T02:30:49.530Z,99.90
2023-10-17T02:33:19.381Z,99.90
2023-10-17T02:36:08.958Z,99.90
2023-10-17T02:38:37.450Z,99.90
2023-10-17T02:41:07.239Z,99.90
2023-10-17T02:43:38.761Z,99.90
2023-10-17T02:46:07.221Z,99.90
2023-10-17T02:48:40.177Z,99.90
2023-10-17T02:51:19.190Z,99.90
2023-10-17T02:53:51.387Z,99.90
2023-10-17T02:56:22.724Z,99.90
2023-10-17T02:59:00.991Z,99.90
2023-10-17T03:01:29.270Z,99.90
2023-10-17T03:03:57.857Z,99.90
2023-10-17T03:06:26.458Z,99.90
2023-10-17T03:09:01.684Z,99.90
2023-10-17T03:11:37.087Z,99.90
2023-10-17T03:14:13.685Z,99.90
2023-10-17T03:16:41.881Z,99.90
2023-10-17T03:19:13.938Z,99.90
2023-10-17T03:21:45.350Z,99.90
2023-10-17T03:24:14.708Z,99.90
2023-10-17T03:26:55.905Z,99.90
2023-10-17T03:29:25.860Z,99.90
2023-10-17T03:32:00.535Z,99.90
2023-10-17T03:34:36.146Z,99.90
2023-10-17T03:37:28.009Z,99.90
2023-10-17T03:39:57.952Z,99.90
2023-10-17T03:42:47.329Z,99.90
2023-10-17T03:45:19.676Z,99.90
2023-10-17T03:47:50.590Z,99.90
2023-10-17T03:53:16.928Z,99.90
2023-10-17T03:55:49.849Z,99.90
2023-10-17T03:58:27.160Z,99.90
2023-10-17T04:00:56.588Z,99.90
2023-10-17T04:03:25.248Z,99.90
2023-10-17T04:06:02.244Z,99.90
2023-10-17T04:08:37.098Z,99.90
2023-10-17T04:11:19.100Z,99.90
2023-10-17T04:13:49.990Z,99.90
2023-10-17T04:16:23.093Z,99.90
2023-10-17T04:18:56.710Z,99.90
2023-10-17T04:21:29.421Z,99.90
2023-10-17T04:24:02.894Z,99.90
2023-10-17T04:26:35.711Z,99.90
2023-10-17T04:29:13.890Z,99.90
2023-10-17T04:31:45.108Z,99.90
2023-10-17T04:34:19.364Z,99.90
2023-10-17T04:36:47.628Z,99.90
2023-10-17T04:39:20.652Z,99.90
2023-10-17T04:42:05.508Z,99.90
2023-10-17T04:44:37.553Z,99.90
2023-10-17T04:47:26.649Z,99.90
2023-10-17T04:49:55.815Z,99.90
2023-10-17T04:52:30.373Z,99.90
2023-10-17T04:55:18.675Z,99.90
2023-10-17T04:58:00.228Z,99.90
2023-10-17T05:00:44.834Z,99.90
2023-10-17T05:03:15.651Z,99.90
2023-10-17T05:06:01.992Z,99.90
2023-10-17T05:08:50.813Z,99.90
2023-10-17T05:11:37.704Z,99.90
2023-10-17T05:14:23.098Z,99.90
2023-10-17T05:17:08.496Z,99.90
2023-10-17T05:19:54.285Z,99.90
2023-10-17T05:22:39.741Z,99.90
2023-10-17T05:25:26.120Z,99.90
2023-10-17T05:28:13.229Z,99.90
2023-10-17T05:31:03.421Z,99.90
2023-10-17T05:33:49.267Z,99.90
2023-10-17T05:36:35.000Z,99.90
2023-10-17T05:39:21.960Z,99.90
2023-10-17T05:42:08.000Z,99.90
2023-10-17T05:44:54.667Z,99.90
2023-10-17T05:47:42.409Z,99.90
2023-10-17T05:50:27.942Z,99.90
2023-10-17T05:53:13.408Z,99.90
2023-10-17T05:56:08.049Z,99.90
2023-10-17T05:58:54.022Z,99.90
2023-10-17T06:01:40.828Z,99.90
2023-10-17T06:04:26.448Z,99.90
2023-10-17T06:07:12.095Z,99.90
2023-10-17T06:09:57.650Z,99.90
2023-10-17T06:12:57.639Z,99.90
2023-10-17T06:15:43.232Z,99.90
2023-10-17T06:18:19.422Z,99.90
2023-10-17T06:21:01.551Z,99.90
2023-10-17T06:23:43.562Z,99.90
2023-10-17T06:26:44.492Z,99.90
2023-10-17T06:29:30.920Z,99.90
2023-10-17T06:32:16.416Z,99.90
2023-10-17T06:34:46.418Z,99.90
2023-10-17T06:37:20.722Z,99.90
2023-10-17T06:39:49.568Z,99.90
2023-10-17T06:42:19.359Z,99.90
2023-10-17T06:44:55.098Z,99.90
2023-10-17T06:47:31.166Z,99.90
2023-10-17T06:50:35.218Z,99.90
2023-10-17T06:53:03.711Z,99.90
2023-10-17T06:55:39.709Z,99.90
2023-10-17T06:58:16.516Z,99.90
2023-10-17T07:00:51.719Z,99.90
2023-10-17T07:03:27.839Z,99.90
2023-10-17T07:06:12.856Z,99.90
2023-10-17T07:08:43.343Z,99.90
2023-10-17T07:11:25.632Z,99.90
2023-10-17T07:14:24.851Z,99.90
2023-10-17T07:17:02.139Z,99.90
2023-10-17T07:19:47.970Z,99.90
2023-10-17T07:22:17.675Z,99.90
2023-10-17T07:24:49.719Z,99.90
2023-10-17T07:27:27.858Z,99.90
2023-10-17T07:30:01.397Z,99.90
2023-10-17T07:32:34.600Z,99.90
2023-10-17T07:35:06.021Z,99.90
2023-10-17T07:37:49.674Z,99.90
2023-10-17T07:40:23.044Z,99.90
2023-10-17T07:42:53.593Z,99.90
2023-10-17T07:45:22.636Z,99.90
2023-10-17T07:47:55.385Z,99.90
2023-10-17T07:50:26.687Z,99.90
2023-10-17T07:53:00.560Z,99.90
2023-10-17T07:55:38.332Z,99.90
2023-10-17T07:58:10.926Z,99.90
2023-10-17T08:00:40.591Z,99.90
2023-10-17T08:03:15.937Z,99.90
2023-10-17T08:05:56.116Z,99.90
2023-10-17T08:08:31.492Z,99.90
2023-10-17T08:11:00.074Z,99.90
2023-10-17T08:13:29.749Z,99.90
2023-10-17T08:16:07.296Z,99.90
2023-10-17T08:18:41.255Z,99.90
2023-10-17T08:21:24.362Z,99.90
2023-10-17T08:23:55.838Z,99.90
2023-10-17T08:26:32.350Z,99.90
2023-10-17T08:29:02.343Z,99.90
2023-10-17T08:31:37.361Z,99.90
2023-10-17T08:34:13.332Z,99.90
2023-10-17T08:36:44.198Z,99.90
2023-10-17T08:39:49.157Z,99.90
2023-10-17T08:42:19.818Z,99.90
2023-10-17T08:44:51.582Z,99.90
2023-10-17T08:47:20.581Z,99.90
2023-10-17T08:49:49.610Z,99.90
2023-10-17T08:52:24.543Z,99.90
2023-10-17T08:54:53.922Z,99.90
2023-10-17T08:57:22.318Z,99.90
2023-10-17T09:00:24.655Z,99.90
2023-10-17T09:03:10.918Z,99.90
2023-10-17T09:05:59.176Z,99.90
2023-10-17T09:08:44.263Z,99.90
2023-10-17T09:11:16.234Z,99.90
2023-10-17T09:14:02.052Z,99.90
2023-10-17T09:16:36.185Z,99.90
2023-10-17T09:19:11.018Z,99.90
2023-10-17T09:21:43.374Z,99.90
2023-10-17T09:24:33.593Z,99.90
2023-10-17T09:27:07.338Z,99.90
2023-10-17T09:29:46.123Z,99.90
2023-10-17T09:32:14.844Z,99.90
2023-10-17T09:34:46.140Z,99.90
2023-10-17T09:37:14.940Z,99.90
2023-10-17T09:39:48.937Z,99.90
2023-10-17T09:42:18.365Z,99.90
2023-10-17T09:44:48.014Z,99.90
2023-10-17T09:47:21.231Z,99.90
2023-10-17T09:49:51.972Z,99.90
2023-10-17T09:52:22.397Z,99.90
2023-10-17T09:54:53.048Z,99.90
2023-10-17T09:57:26.178Z,99.90
2023-10-17T10:00:08.804Z,99.90
2023-10-17T10:02:39.927Z,99.90
2023-10-17T10:05:25.377Z,99.90
2023-10-17T10:07:54.715Z,99.90
2023-10-17T10:10:52.822Z,99.90
2023-10-17T10:13:22.795Z,99.90
2023-10-17T10:15:52.424Z,99.90
2023-10-17T10:18:58.943Z,99.90
2023-10-17T10:22:00.743Z,99.90
2023-10-17T10:24:36.141Z,99.90
2023-10-17T10:27:20.120Z,99.90
2023-10-17T10:29:52.238Z,99.90
2023-10-17T10:32:32.144Z,99.90
2023-10-17T10:35:02.480Z,99.90
2023-10-17T10:37:30.851Z,99.90
2023-10-17T10:40:17.725Z,99.90
2023-10-17T10:42:47.055Z,99.90
2023-10-17T10:45:26.026Z,99.90
2023-10-17T10:47:58.923Z,99.90
2023-10-17T10:50:30.584Z,99.90
2023-10-17T10:53:01.433Z,99.90
2023-10-17T10:55:31.485Z,99.90
2023-10-17T10:58:05.403Z,99.90
2023-10-17T11:00:34.191Z,99.90
2023-10-17T11:03:02.815Z,99.90
2023-10-17T11:05:33.904Z,99.90
2023-10-17T11:08:02.999Z,99.90
2023-10-17T11:10:32.677Z,99.90
2023-10-17T11:13:01.132Z,99.90
2023-10-17T11:15:29.916Z,99.90
2023-10-17T11:18:21.692Z,99.90
2023-10-17T11:20:56.272Z,99.90
2023-10-17T11:23:28.128Z,99.90
2023-10-17T11:25:58.087Z,99.90
2023-10-17T11:28:26.242Z,99.90
2023-10-17T11:30:54.788Z,99.90
2023-10-17T11:33:30.197Z,99.90
2023-10-17T11:36:13.636Z,99.90
2023-10-17T11:38:45.556Z,99.90
2023-10-17T11:41:18.569Z,99.90
2023-10-17T11:43:54.908Z,99.90
2023-10-17T11:46:30.884Z,99.90
2023-10-17T11:49:28.042Z,99.90
2023-10-17T11:52:01.994Z,99.90
2023-10-17T11:54:34.665Z,99.90
2023-10-17T11:57:15.691Z,99.90
2023-10-17T12:00:08.421Z,99.90
2023-10-17T12:02:43.477Z,98.60
2023-10-17T12:05:19.473Z,98.90
2023-10-17T12:07:50.625Z,98.70
2023-10-17T12:10:19.120Z,95.80
2023-10-17T12:12:47.444Z,92.10
2023-10-17T12:15:15.795Z,91.10
2023-10-17T12:17:45.200Z,92.90
2023-10-17T12:20:13.559Z,93.00
2023-10-17T12:22:43.307Z,86.00
2023-10-17T12:25:15.088Z,78.30
2023-10-17T12:27:43.237Z,80.50
2023-10-17T12:30:16.698Z,76.50
2023-10-17T12:32:45.959Z,72.00
2023-10-17T12:35:17.594Z,73.60
2023-10-17T12:37:46.982Z,71.40
2023-10-17T12:40:22.265Z,64.10
2023-10-17T12:42:51.177Z,63.50
2023-10-17T12:45:21.469Z,65.50
2023-10-17T12:47:50.392Z,62.20
2023-10-17T12:50:19.949Z,59.80
2023-10-17T12:52:48.723Z,58.90
2023-10-17T12:55:20.842Z,57.00
2023-10-17T12:57:49.135Z,52.40
2023-10-17T13:00:18.052Z,56.00
2023-10-17T13:02:48.574Z,55.20
2023-10-17T13:05:16.988Z,49.20
2023-10-17T13:07:45.133Z,48.60
2023-10-17T13:10:13.968Z,45.30
2023-10-17T13:12:43.508Z,46.20
2023-10-17T13:15:16.400Z,43.90
2023-10-17T13:17:45.883Z,44.40
2023-10-17T13:20:23.966Z,41.50
2023-10-17T13:23:06.206Z,40.60
2023-10-17T13:25:36.291Z,42.40
2023-10-17T13:28:06.481Z,42.30
2023-10-17T13:30:35.369Z,42.40
2023-10-17T13:33:03.625Z,39.60
2023-10-17T13:35:31.897Z,40.20
2023-10-17T13:38:00.380Z,38.40
2023-10-17T13:40:28.765Z,37.40
2023-10-17T13:42:56.919Z,38.00
2023-10-17T13:45:28.763Z,37.60
2023-10-17T13:47:58.039Z,36.50
2023-10-17T13:50:27.060Z,35.90
2023-10-17T13:52:55.441Z,34.60
2023-10-17T13:55:26.584Z,35.70
2023-10-17T13:57:56.638Z,33.80
2023-10-17T14:00:32.674Z,34.40
2023-10-17T14:03:03.588Z,32.80
2023-10-17T14:05:32.140Z,35.10
2023-10-17T14:08:00.245Z,33.40
2023-10-17T14:10:28.340Z,33.20
2023-10-17T14:12:58.827Z,34.50
2023-10-17T14:15:28.398Z,35.30
2023-10-17T14:18:00.673Z,33.60
2023-10-17T14:20:39.558Z,33.60
2023-10-17T14:23:12.897Z,33.90
2023-10-17T14:25:58.945Z,36.30
2023-10-17T14:28:27.065Z,36.40
2023-10-17T14:30:55.509Z,36.90
2023-10-17T14:33:23.878Z,38.80
2023-10-17T14:35:51.997Z,42.30
2023-10-17T14:38:20.177Z,45.20
2023-10-17T14:40:48.217Z,47.00
2023-10-17T14:43:16.307Z,50.20
2023-10-17T14:45:46.273Z,52.70
2023-10-17T14:48:15.864Z,55.70
2023-10-17T14:50:45.852Z,57.30
2023-10-17T14:53:14.468Z,57.40
2023-10-17T14:55:42.552Z,57.70
2023-10-17T14:58:10.753Z,59.30
2023-10-17T15:00:39.113Z,60.30
2023-10-17T15:03:07.326Z,60.50
2023-10-17T15:05:41.556Z,61.40
2023-10-17T15:08:12.191Z,62.30
2023-10-17T15:10:41.247Z,62.80
2023-10-17T15:13:10.994Z,63.50
2023-10-17T15:15:39.449Z,65.20
2023-10-17T15:18:07.715Z,65.60
2023-10-17T15:20:37.725Z,66.80
2023-10-17T15:23:06.346Z,66.60
2023-10-17T15:25:34.486Z,67.20
2023-10-17T15:28:02.675Z,67.80
2023-10-17T15:30:37.423Z,68.30
2023-10-17T15:33:07.898Z,69.90
2023-10-17T15:35:39.528Z,70.30
2023-10-17T15:38:09.459Z,71.00
2023-10-17T15:40:38.210Z,72.30
2023-10-17T15:43:07.130Z,72.90
2023-10-17T15:45:36.465Z,73.90
2023-10-17T15:48:06.536Z,74.80
2023-10-17T15:50:34.953Z,74.80
2023-10-17T15:53:05.782Z,74.80
2023-10-17T15:55:33.910Z,76.70
2023-10-17T15:58:03.432Z,77.00
2023-10-17T16:00:32.141Z,78.00
2023-10-17T16:03:00.818Z,79.60
2023-10-17T16:05:31.075Z,79.90
2023-10-17T16:07:59.563Z,82.00
2023-10-17T16:10:29.495Z,83.40
2023-10-17T16:13:01.881Z,86.00
2023-10-17T16:15:30.611Z,88.50
2023-10-17T16:17:58.778Z,90.00
2023-10-17T16:20:27.134Z,91.10
2023-10-17T16:22:56.068Z,91.80
2023-10-17T16:25:25.697Z,92.80
2023-10-17T16:27:56.300Z,94.10
2023-10-17T16:30:28.864Z,94.90
2023-10-17T16:32:57.717Z,97.20
2023-10-17T16:35:26.651Z,98.00
2023-10-17T16:37:55.284Z,99.80
2023-10-17T16:40:24.302Z,99.90
2023-10-17T16:42:54.298Z,99.90
2023-10-17T16:45:24.354Z,99.90
2023-10-17T16:47:52.834Z,99.90
2023-10-17T16:50:24.016Z,99.90
2023-10-17T16:52:53.987Z,99.90
2023-10-17T16:55:23.309Z,99.90
2023-10-17T16:57:52.537Z,99.90
2023-10-17T17:00:21.357Z,99.90
2023-10-17T17:02:51.722Z,99.90
2023-10-17T17:05:21.680Z,99.90
2023-10-17T17:07:51.267Z,99.90
2023-10-17T17:10:20.274Z,99.90
2023-10-17T17:12:49.858Z,99.90
2023-10-17T17:15:18.661Z,99.90
2023-10-17T17:17:46.795Z,99.90
2023-10-17T17:20:16.642Z,99.90
2023-10-17T17:22:48.602Z,99.90
2023-10-17T17:25:17.169Z,99.90
2023-10-17T17:27:46.271Z,99.90
2023-10-17T17:30:17.231Z,99.90
2023-10-17T17:32:46.088Z,99.90
2023-10-17T17:35:14.305Z,99.90
2023-10-17T17:37:44.204Z,99.90
2023-10-17T17:40:12.973Z,99.90
2023-10-17T17:42:42.010Z,99.90
2023-10-17T17:45:12.878Z,99.90
2023-10-17T17:47:44.598Z,99.90
2023-10-17T17:50:19.233Z,99.90
2023-10-17T17:52:48.950Z,99.90
2023-10-17T17:55:17.828Z,99.90
2023-10-17T17:57:45.965Z,99.90
2023-10-17T18:00:16.888Z,99.90
2023-10-17T18:02:46.297Z,99.90
2023-10-17T18:05:21.811Z,99.90
2023-10-17T18:07:51.923Z,99.90
2023-10-17T18:10:22.794Z,99.90
2023-10-17T18:12:51.840Z,99.90
2023-10-17T18:15:20.212Z,99.90
2023-10-17T18:17:48.415Z,99.90
2023-10-17T18:20:16.718Z,99.90
2023-10-17T18:22:47.122Z,99.90
2023-10-17T18:25:17.124Z,99.90
2023-10-17T18:27:45.616Z,99.90
2023-10-17T18:30:16.070Z,99.90
2023-10-17T18:32:45.894Z,99.90
2023-10-17T18:35:14.441Z,99.90
2023-10-17T18:37:43.488Z,99.90
2023-10-17T18:40:13.285Z,99.90
2023-10-17T18:42:43.527Z,99.90
2023-10-17T18:45:16.347Z,99.90
2023-10-17T18:47:45.679Z,99.90
2023-10-17T18:50:14.395Z,99.90
2023-10-17T18:52:46.078Z,99.90
2023-10-17T18:55:14.481Z,99.90
2023-10-17T18:57:44.120Z,99.90
2023-10-17T19:00:18.979Z,99.90
2023-10-17T19:02:48.877Z,99.90
2023-10-17T19:05:17.274Z,99.90
2023-10-17T19:07:48.401Z,99.90
2023-10-17T19:10:18.485Z,99.90
2023-10-17T19:12:52.586Z,99.90
2023-10-17T19:15:22.698Z,99.90
2023-10-17T19:17:52.754Z,99.90
2023-10-17T19:20:21.394Z,99.90
2023-10-17T19:22:50.066Z,99.90
2023-10-17T19:25:19.202Z,99.90
2023-10-17T19:27:48.650Z,99.90
2023-10-17T19:30:19.303Z,99.90
2023-10-17T19:32:47.343Z,99.90
2023-10-17T19:35:17.715Z,99.90
2023-10-17T19:37:47.633Z,99.90
2023-10-17T19:40:15.880Z,99.90
2023-10-17T19:42:46.123Z,99.90
2023-10-17T19:45:15.931Z,99.90
2023-10-17T19:47:44.815Z,99.90
2023-10-17T19:50:16.375Z,99.90
2023-10-17T19:52:46.663Z,99.90
2023-10-17T19:55:18.370Z,99.90
2023-10-17T19:57:49.221Z,99.90
2023-10-17T20:00:23.900Z,99.90
2023-10-17T20:02:53.025Z,99.90
2023-10-17T20:05:21.428Z,99.90
2023-10-17T20:07:49.792Z,99.90
2023-10-17T20:10:18.352Z,99.90
2023-10-17T20:12:47.660Z,99.90
2023-10-17T20:15:16.211Z,99.90
2023-10-17T20:17:47.747Z,99.90
2023-10-17T20:20:20.394Z,99.90
2023-10-17T20:22:48.857Z,99.90
2023-10-17T20:25:16.947Z,99.90
2023-10-17T20:27:46.175Z,99.90
2023-10-17T20:30:14.579Z,99.90
2023-10-17T20:32:42.769Z,99.90
2023-10-17T20:35:12.614Z,99.90
2023-10-17T20:37:40.761Z,99.90
2023-10-17T20:40:14.166Z,99.90
2023-10-17T20:42:42.990Z,99.90
2023-10-17T20:45:13.780Z,99.90
2023-10-17T20:47:42.871Z,99.90
2023-10-17T20:50:12.363Z,99.90
2023-10-17T20:52:40.461Z,99.90
2023-10-17T20:55:10.929Z,99.90
2023-10-17T20:57:39.091Z,99.90
2023-10-17T21:00:09.648Z,99.90
2023-10-17T21:02:39.094Z,99.90
2023-10-17T21:05:08.999Z,99.90
2023-10-17T21:07:38.945Z,99.90
2023-10-17T21:10:08.655Z,99.90
2023-10-17T21:12:39.042Z,99.90
2023-10-17T21:15:08.513Z,99.90
2023-10-17T21:17:36.606Z,99.90
2023-10-17T21:20:05.518Z,99.90
2023-10-17T21:22:33.579Z,99.90
2023-10-17T21:25:03.302Z,99.90
2023-10-17T21:27:31.536Z,99.90
2023-10-17T21:29:59.612Z,99.90
2023-10-17T21:32:27.736Z,99.90
2023-10-17T21:34:55.894Z,99.90
2023-10-17T21:37:23.996Z,99.90
2023-10-17T21:39:52.124Z,99.90
2023-10-17T21:42:21.763Z,99.90
2023-10-17T21:44:49.972Z,99.90
2023-10-17T21:47:18.054Z,99.90
2023-10-17T21:49:46.712Z,99.90
2023-10-17T21:52:14.765Z,99.90
2023-10-17T21:54:43.018Z,99.90
2023-10-17T21:57:14.313Z,99.90
2023-10-17T21:59:44.836Z,99.90
2023-10-17T22:02:12.954Z,99.90
2023-10-17T22:04:41.174Z,99.90
2023-10-17T22:07:10.868Z,99.90
2023-10-17T22:09:39.768Z,99.90
2023-10-17T22:12:09.420Z,99.90
2023-10-17T22:14:38.010Z,99.90
2023-10-17T22:17:07.766Z,99.90
2023-10-17T22:19:36.841Z,99.90
2023-10-17T22:22:05.601Z,99.90
2023-10-17T22:24:51.954Z,99.90
2023-10-17T22:27:22.437Z,99.90
2023-10-17T22:29:50.494Z,99.90
2023-10-17T22:32:19.967Z,99.90
2023-10-17T22:34:48.279Z,99.90
2023-10-17T22:37:16.534Z,99.90
2023-10-17T22:39:44.953Z,99.90
2023-10-17T22:42:13.054Z,99.90
2023-10-17T22:44:41.556Z,99.90
2023-10-17T22:47:10.827Z,99.90
2023-10-17T22:49:40.906Z,99.90
2023-10-17T22:52:09.236Z,99.90
2023-10-17T22:54:37.411Z,99.90
2023-10-17T22:57:05.925Z,99.90
2023-10-17T22:59:34.341Z,99.90
2023-10-17T23:02:02.501Z,99.90
2023-10-17T23:04:31.440Z,99.90
2023-10-17T23:07:01.025Z,99.90
2023-10-17T23:09:30.967Z,99.90
2023-10-17T23:11:59.239Z,99.90
2023-10-17T23:14:27.461Z,99.90
2023-10-17T23:16:55.543Z,99.90
2023-10-17T23:19:23.678Z,99.90
2023-10-17T23:21:52.376Z,99.90
2023-10-17T23:24:21.788Z,99.90
2023-10-17T23:26:49.896Z,99.90
2023-10-17T23:29:18.256Z,99.90
2023-10-17T23:31:46.438Z,99.90
2023-10-17T23:34:16.482Z,99.90
2023-10-17T23:36:45.013Z,99.90
2023-10-17T23:39:14.060Z,99.90
2023-10-17T23:41:46.375Z,99.90
2023-10-17T23:44:14.898Z,99.90
2023-10-17T23:46:45.656Z,99.90
2023-10-17T23:49:14.419Z,99.90
2023-10-17T23:51:42.922Z,99.90
2023-10-17T23:54:11.050Z,99.90
2023-10-17T23:56:39.119Z,99.90
2023-10-17T23:59:08.555Z,99.90
